Time;durP1;ratioP1;P1;durP2;ratioP2;P2;SDS_P1;SDS_P2;PMS_P1;PMS_P2;Temp;Humidity;BMP_temperature;BMP_pressure;BME280_temperature;BME280_humidity;BME280_pressure;Samples;Min_cycle;Max_cycle;Signal;HPM_P1;HPM_P2
2021/03/24 00:00:36;;;;;;;20.25;10.15;;;-1.20;99.90;;;;;;8330006;28;20022;-67
2021/03/24 00:04:36;;;;;;;21.48;10.38;;;-1.20;99.90;;;;;;8316860;28;20048;-67
2021/03/24 00:08:38;;;;;;;20.48;9.98;;;-1.20;99.90;;;;;;8349512;28;20036;-67
2021/03/24 00:12:39;;;;;;;19.58;8.98;;;-1.00;99.90;;;;;;8333482;28;20029;-67
2021/03/24 00:16:40;;;;;;;22.05;10.05;;;-1.10;99.90;;;;;;8330816;28;20029;-67
2021/03/24 00:20:42;;;;;;;25.30;10.55;;;-0.90;99.90;;;;;;8314834;28;20400;-67
2021/03/24 00:24:43;;;;;;;19.88;9.93;;;-1.20;99.90;;;;;;8329620;28;20025;-66
2021/03/24 00:28:43;;;;;;;20.92;9.82;;;-1.30;99.90;;;;;;8329663;28;20057;-67
2021/03/24 00:32:44;;;;;;;27.27;11.50;;;-1.20;99.90;;;;;;8314436;28;20445;-67
2021/03/24 00:36:44;;;;;;;21.85;10.57;;;-1.50;99.90;;;;;;8362386;28;20707;-67
2021/03/24 00:40:48;;;;;;;20.38;10.30;;;-1.40;99.90;;;;;;8362154;28;20032;-67
2021/03/24 00:44:49;;;;;;;19.13;9.80;;;-1.50;99.90;;;;;;8361723;28;20025;-67
2021/03/24 00:48:49;;;;;;;21.90;10.48;;;-1.50;99.90;;;;;;8361671;28;20679;-67
2021/03/24 00:52:50;;;;;;;22.67;11.07;;;-1.70;99.90;;;;;;8361631;28;20039;-67
2021/03/24 00:56:50;;;;;;;25.15;10.88;;;-1.40;99.90;;;;;;8343652;28;20052;-67
2021/03/24 01:00:51;;;;;;;23.17;11.05;;;-1.30;99.90;;;;;;8361551;28;20033;-68
2021/03/24 01:04:52;;;;;;;22.13;10.63;;;-1.60;99.90;;;;;;8360927;28;20568;-67
2021/03/24 01:08:56;;;;;;;23.92;10.23;;;-1.70;99.90;;;;;;8361324;28;20025;-67
2021/03/24 01:12:56;;;;;;;19.58;9.63;;;-1.60;99.90;;;;;;8360757;28;20069;-68
2021/03/24 01:16:57;;;;;;;24.58;10.18;;;-1.60;99.90;;;;;;8360861;28;20548;-67
2021/03/24 01:20:58;;;;;;;22.00;9.77;;;-1.50;99.90;;;;;;8342652;28;20120;-67
2021/03/24 01:24:59;;;;;;;19.10;9.18;;;-1.70;99.90;;;;;;8360542;28;20029;-67
2021/03/24 01:28:59;;;;;;;21.25;10.30;;;-1.60;99.90;;;;;;8342777;28;20033;-67
2021/03/24 01:33:00;;;;;;;23.00;10.13;;;-1.40;99.90;;;;;;8360258;28;20032;-67
2021/03/24 01:37:00;;;;;;;19.33;9.38;;;-1.50;99.90;;;;;;8360556;28;20029;-67
2021/03/24 01:41:01;;;;;;;20.73;10.07;;;-1.50;99.90;;;;;;8339184;28;20034;-67
2021/03/24 01:45:14;;;;;;;22.20;10.18;;;-1.50;99.90;;;;;;8327151;28;20041;-67
2021/03/24 01:49:39;;;;;;;23.52;10.90;;;-1.60;99.90;;;;;;8309346;28;20025;-67
2021/03/24 01:53:41;;;;;;;22.40;10.65;;;-1.90;99.90;;;;;;8326847;28;20029;-67
2021/03/24 01:57:46;;;;;;;21.55;9.18;;;-2.00;99.90;;;;;;8327021;28;20053;-67
2021/03/24 02:01:47;;;;;;;20.17;10.23;;;-1.90;99.90;;;;;;8327260;28;20396;-68
2021/03/24 02:05:48;;;;;;;26.95;10.90;;;-1.80;99.90;;;;;;8326685;28;20036;-67
2021/03/24 02:10:07;;;;;;;20.88;10.20;;;-1.80;99.90;;;;;;8309261;28;20029;-67
2021/03/24 02:14:17;;;;;;;20.58;10.13;;;-1.90;99.90;;;;;;8326522;28;20033;-67
2021/03/24 02:18:20;;;;;;;17.52;9.55;;;-2.10;99.90;;;;;;8326830;28;20037;-67
2021/03/24 02:22:27;;;;;;;23.20;9.75;;;-2.30;99.90;;;;;;8308713;28;20032;-67
2021/03/24 02:26:38;;;;;;;20.85;9.95;;;-2.20;99.90;;;;;;8326591;28;20033;-68
2021/03/24 02:30:43;;;;;;;18.55;10.50;;;-2.00;99.90;;;;;;8330125;28;20392;-67
2021/03/24 02:34:46;;;;;;;20.55;9.73;;;-2.20;99.90;;;;;;8352136;28;20115;-67
2021/03/24 02:38:49;;;;;;;19.20;9.40;;;-2.20;99.90;;;;;;8366069;28;20029;-67
2021/03/24 02:42:52;;;;;;;22.30;10.13;;;-2.20;99.90;;;;;;8343398;28;20037;-67
2021/03/24 02:46:54;;;;;;;21.25;10.18;;;-2.10;99.90;;;;;;8334828;28;20099;-67
2021/03/24 02:50:56;;;;;;;26.80;10.77;;;-2.00;99.90;;;;;;8336330;28;20028;-67
2021/03/24 02:54:57;;;;;;;25.05;10.93;;;-2.00;99.90;;;;;;8365163;28;20083;-67
2021/03/24 02:58:58;;;;;;;21.23;10.90;;;-2.00;99.90;;;;;;8347602;28;20025;-67
2021/03/24 03:03:03;;;;;;;23.40;11.18;;;-2.30;99.90;;;;;;8347025;28;20509;-67
2021/03/24 03:07:11;;;;;;;24.33;11.55;;;-2.50;99.90;;;;;;8347447;28;20055;-67
2021/03/24 03:11:28;;;;;;;21.23;10.13;;;-2.70;99.90;;;;;;8365089;28;20052;-67
2021/03/24 03:15:59;;;;;;;21.55;9.77;;;-2.40;99.90;;;;;;8364728;28;20032;-67
2021/03/24 03:20:40;;;;;;;21.05;9.57;;;-2.50;99.90;;;;;;8363587;28;20167;-67
2021/03/24 03:24:53;;;;;;;25.27;9.98;;;-2.70;99.90;;;;;;8363490;28;20095;-67
2021/03/24 03:28:57;;;;;;;13.85;6.85;;;-2.50;99.90;;;;;;8364513;28;20632;-67
2021/03/24 03:33:01;;;;;;;21.25;10.27;;;-2.60;99.90;;;;;;8363952;28;20032;-67
2021/03/24 03:37:02;;;;;;;25.55;10.20;;;-2.60;99.90;;;;;;8364211;28;20033;-67
2021/03/24 03:41:06;;;;;;;22.02;10.35;;;-2.50;99.90;;;;;;8345330;28;20029;-67
2021/03/24 03:45:09;;;;;;;21.27;10.65;;;-2.40;99.90;;;;;;8363684;28;20033;-67
2021/03/24 03:49:10;;;;;;;24.50;11.32;;;-2.50;99.90;;;;;;8345840;28;20048;-68
2021/03/24 03:53:25;;;;;;;22.42;9.93;;;-2.40;99.90;;;;;;8345804;28;20392;-67
2021/03/24 03:57:48;;;;;;;20.95;9.95;;;-2.60;99.90;;;;;;8363561;28;20079;-67
2021/03/24 04:01:54;;;;;;;22.92;10.85;;;-2.60;99.90;;;;;;8363329;28;20037;-67
2021/03/24 04:06:01;;;;;;;24.35;10.25;;;-2.80;99.90;;;;;;8363059;28;20037;-67
2021/03/24 04:10:03;;;;;;;21.05;10.18;;;-3.00;99.90;;;;;;8363117;28;20472;-67
2021/03/24 04:14:06;;;;;;;25.60;10.60;;;-2.70;99.90;;;;;;8362699;28;20075;-67
2021/03/24 04:18:20;;;;;;;25.63;11.30;;;-2.50;99.90;;;;;;8362945;28;20053;-68
2021/03/24 04:22:26;;;;;;;22.55;9.82;;;-2.50;99.90;;;;;;8362588;28;20025;-67
2021/03/24 04:26:35;;;;;;;25.67;10.35;;;-2.80;99.90;;;;;;8334832;28;20079;-67
2021/03/24 04:30:42;;;;;;;23.30;10.93;;;-2.80;99.90;;;;;;8315482;28;20033;-67
2021/03/24 04:34:43;;;;;;;25.83;11.07;;;-2.80;99.90;;;;;;8331155;28;20116;-67
2021/03/24 04:38:49;;;;;;;25.40;11.10;;;-2.70;99.90;;;;;;8332788;28;20426;-67
2021/03/24 04:42:58;;;;;;;27.85;11.10;;;-2.80;99.90;;;;;;8329836;28;20369;-67
2021/03/24 04:47:05;;;;;;;25.00;10.90;;;-2.80;99.90;;;;;;8323904;28;20041;-67
2021/03/24 04:51:13;;;;;;;22.42;10.25;;;-2.50;99.90;;;;;;8308582;28;20064;-67
2021/03/24 04:55:16;;;;;;;26.00;10.35;;;-2.60;99.90;;;;;;8327201;28;20026;-67
2021/03/24 04:59:21;;;;;;;23.13;11.50;;;-2.70;99.90;;;;;;8328682;28;20061;-67
2021/03/24 05:03:27;;;;;;;23.17;10.20;;;-2.70;99.90;;;;;;8330328;28;20041;-67
2021/03/24 05:07:57;;;;;;;25.88;10.10;;;-2.90;99.90;;;;;;8312978;28;20026;-67
2021/03/24 05:12:20;;;;;;;30.55;11.48;;;-2.70;99.90;;;;;;8305425;28;20033;-67
2021/03/24 05:16:27;;;;;;;20.27;10.57;;;-2.70;99.90;;;;;;8327695;28;20040;-67
2021/03/24 05:20:27;;;;;;;23.02;10.82;;;-2.40;99.90;;;;;;8331564;28;20620;-67
2021/03/24 05:24:31;;;;;;;20.83;8.60;;;-2.70;99.90;;;;;;8329346;28;20095;-67
2021/03/24 05:28:47;;;;;;;24.30;10.82;;;-2.40;99.90;;;;;;8310366;28;20406;-67
2021/03/24 05:32:54;;;;;;;27.75;13.23;;;-0.20;99.90;;;;;;8314897;28;20024;-67
2021/03/24 05:36:56;;;;;;;35.75;13.95;;;1.20;99.90;;;;;;8330957;28;20029;-67
2021/03/24 05:41:14;;;;;;;26.05;12.68;;;2.60;99.90;;;;;;8330315;28;20030;-67
2021/03/24 05:45:38;;;;;;;30.17;12.88;;;3.40;99.90;;;;;;8326695;28;20418;-67
2021/03/24 05:49:58;;;;;;;25.83;13.35;;;1.70;99.90;;;;;;8325373;28;20167;-67
2021/03/24 05:54:23;;;;;;;23.73;12.30;;;0.50;99.90;;;;;;8310930;28;20056;-67
2021/03/24 05:58:39;;;;;;;31.25;14.60;;;0.00;99.90;;;;;;8307508;28;20491;-67
2021/03/24 06:02:58;;;;;;;33.10;15.35;;;-0.40;99.90;;;;;;8312193;28;20487;-67
2021/03/24 06:07:24;;;;;;;32.42;14.60;;;-0.40;99.90;;;;;;8325475;28;20045;-67
2021/03/24 06:12:06;;;;;;;28.83;13.40;;;-0.20;99.90;;;;;;8345942;28;20033;-67
2021/03/24 06:16:30;;;;;;;29.48;13.80;;;0.00;99.90;;;;;;8309959;28;20441;-68
2021/03/24 06:20:59;;;;;;;41.28;19.45;;;0.00;99.90;;;;;;8326207;28;20053;-68
2021/03/24 06:25:10;;;;;;;31.77;14.38;;;0.00;99.90;;;;;;8326187;28;20699;-67
2021/03/24 06:29:22;;;;;;;31.23;16.83;;;0.10;99.90;;;;;;8326002;28;20048;-70
2021/03/24 06:33:44;;;;;;;27.33;14.30;;;0.30;99.90;;;;;;8323484;28;20032;-67
2021/03/24 06:38:22;;;;;;;27.27;12.40;;;0.50;99.90;;;;;;8324931;28;20092;-67
2021/03/24 06:43:01;;;;;;;23.58;11.43;;;0.70;99.90;;;;;;8304163;28;20083;-67
2021/03/24 06:47:17;;;;;;;23.88;12.13;;;0.90;99.90;;;;;;8321252;28;20034;-65
2021/03/24 06:51:39;;;;;;;25.98;12.77;;;0.90;99.90;;;;;;8320570;28;20025;-66
2021/03/24 06:56:17;;;;;;;21.73;11.82;;;1.20;99.90;;;;;;8316896;28;20045;-66
2021/03/24 07:00:28;;;;;;;23.83;12.13;;;1.40;99.90;;;;;;8319931;28;20025;-67
2021/03/24 07:04:52;;;;;;;30.75;12.93;;;1.60;99.90;;;;;;8322601;28;20033;-66
2021/03/24 07:09:09;;;;;;;27.33;13.80;;;1.80;99.90;;;;;;8326228;28;20101;-65
2021/03/24 07:13:35;;;;;;;26.13;13.32;;;2.10;99.90;;;;;;8307845;28;20026;-65
2021/03/24 07:18:07;;;;;;;28.65;13.88;;;2.40;99.90;;;;;;8311751;28;20030;-65
2021/03/24 07:22:37;;;;;;;26.63;14.35;;;2.70;99.90;;;;;;8313355;28;20403;-65
2021/03/24 07:27:09;;;;;;;29.75;14.43;;;3.00;99.90;;;;;;8316415;28;20442;-66
2021/03/24 07:31:48;;;;;;;26.20;13.05;;;3.20;99.90;;;;;;8342619;28;20395;-66
2021/03/24 07:36:22;;;;;;;24.75;13.45;;;3.30;99.90;;;;;;8335565;28;20072;-65
2021/03/24 07:40:50;;;;;;;24.80;12.80;;;3.60;99.90;;;;;;8332778;28;20607;-65
2021/03/24 07:45:34;;;;;;;20.48;10.95;;;4.00;99.90;;;;;;8317027;28;20032;-65
2021/03/24 07:49:50;;;;;;;25.42;12.77;;;4.30;99.90;;;;;;8272797;28;20076;-66
2021/03/24 07:54:12;;;;;;;25.48;11.23;;;4.30;99.90;;;;;;8313987;28;20112;-65
2021/03/24 07:58:51;;;;;;;18.48;10.13;;;4.50;99.90;;;;;;8297478;28;20022;-65
2021/03/24 08:03:07;;;;;;;18.98;10.50;;;4.80;99.90;;;;;;8315746;28;20067;-66
2021/03/24 08:07:20;;;;;;;18.42;10.55;;;5.30;99.90;;;;;;8310877;28;20060;-65
2021/03/24 08:11:32;;;;;;;18.23;9.40;;;5.40;99.90;;;;;;8310012;28;20484;-65
2021/03/24 08:16:25;;;;;;;18.17;9.63;;;5.50;99.90;;;;;;8294823;28;20542;-65
2021/03/24 08:21:00;;;;;;;19.13;10.65;;;5.60;99.90;;;;;;8318610;28;20052;-65
2021/03/24 08:25:21;;;;;;;18.38;9.60;;;5.80;99.90;;;;;;8329414;28;20545;-65
2021/03/24 08:29:30;;;;;;;17.48;9.35;;;6.10;99.90;;;;;;8359478;28;20029;-66
2021/03/24 08:33:56;;;;;;;16.48;8.40;;;6.30;99.90;;;;;;8344118;28;20065;-65
2021/03/24 08:38:15;;;;;;;17.25;9.10;;;6.70;99.90;;;;;;8326563;28;20025;-66
2021/03/24 08:42:21;;;;;;;13.90;8.07;;;6.60;99.90;;;;;;8322531;28;20017;-65
2021/03/24 08:46:28;;;;;;;16.75;9.02;;;6.80;99.90;;;;;;8302713;28;20034;-64
2021/03/24 08:50:33;;;;;;;16.52;9.20;;;6.90;99.90;;;;;;8311036;28;20026;-64
2021/03/24 08:54:37;;;;;;;16.50;9.23;;;7.10;99.90;;;;;;8309876;28;20061;-64
2021/03/24 08:58:42;;;;;;;14.07;8.45;;;7.30;99.90;;;;;;8326709;28;20076;-65
2021/03/24 09:03:10;;;;;;;18.63;8.70;;;7.40;99.90;;;;;;8330378;28;20032;-64
2021/03/24 09:07:42;;;;;;;18.55;9.18;;;7.70;99.90;;;;;;8325685;28;20029;-65
2021/03/24 09:11:53;;;;;;;18.30;9.10;;;8.00;99.90;;;;;;8311284;28;20029;-65
2021/03/24 09:16:09;;;;;;;16.30;9.23;;;8.10;99.90;;;;;;8343558;28;20480;-65
2021/03/24 09:20:48;;;;;;;17.85;9.20;;;8.30;99.90;;;;;;8327174;28;20033;-66
2021/03/24 09:25:27;;;;;;;14.57;9.38;;;8.30;99.90;;;;;;8296411;28;20508;-65
2021/03/24 09:29:53;;;;;;;19.35;9.75;;;8.40;99.90;;;;;;8260833;28;20184;-65
2021/03/24 09:33:59;;;;;;;16.70;9.05;;;8.40;99.90;;;;;;8331982;28;20032;-65
2021/03/24 09:38:11;;;;;;;17.40;9.20;;;8.60;99.90;;;;;;8320612;28;20064;-66
2021/03/24 09:42:35;;;;;;;18.25;9.27;;;8.90;99.90;;;;;;8324845;28;20403;-65
2021/03/24 09:46:51;;;;;;;15.73;9.00;;;8.90;99.90;;;;;;8310838;28;20033;-66
2021/03/24 09:51:05;;;;;;;18.33;8.93;;;9.00;99.90;;;;;;8341075;28;20120;-65
2021/03/24 09:55:08;;;;;;;20.27;10.07;;;9.60;99.90;;;;;;8325925;28;20038;-65
2021/03/24 09:59:17;;;;;;;16.17;9.77;;;9.70;99.90;;;;;;8326079;28;20488;-65
2021/03/24 10:03:38;;;;;;;17.02;9.82;;;9.80;99.90;;;;;;8329426;28;20037;-66
2021/03/24 10:07:57;;;;;;;16.83;10.05;;;10.10;99.90;;;;;;8298414;28;20136;-65
2021/03/24 10:12:28;;;;;;;16.98;9.52;;;10.30;99.90;;;;;;8322126;28;20033;-65
2021/03/24 10:16:32;;;;;;;17.33;10.35;;;10.40;99.90;;;;;;8332413;28;20125;-66
2021/03/24 10:20:44;;;;;;;18.35;10.18;;;10.20;99.90;;;;;;8318989;28;20025;-65
2021/03/24 10:24:49;;;;;;;19.85;10.93;;;10.30;99.90;;;;;;8324418;28;20052;-65
2021/03/24 10:29:15;;;;;;;16.35;9.18;;;9.90;99.90;;;;;;8322645;28;20516;-65
2021/03/24 10:33:34;;;;;;;17.35;9.63;;;10.20;99.90;;;;;;8323554;28;20022;-65
2021/03/24 10:38:03;;;;;;;14.48;8.50;;;10.30;99.90;;;;;;8317022;28;20087;-65
2021/03/24 10:42:26;;;;;;;16.77;9.25;;;10.90;99.90;;;;;;8318013;28;20033;-65
2021/03/24 10:46:36;;;;;;;15.13;8.60;;;11.00;99.90;;;;;;8307304;28;20725;-65
2021/03/24 10:50:41;;;;;;;16.13;9.68;;;11.40;99.90;;;;;;8333657;28;20040;-65
2021/03/24 10:54:42;;;;;;;19.73;8.98;;;11.90;99.90;;;;;;8327652;28;20060;-65
2021/03/24 10:59:12;;;;;;;14.70;8.73;;;12.10;99.90;;;;;;8331987;28;20112;-64
2021/03/24 11:03:23;;;;;;;17.08;9.82;;;12.60;99.90;;;;;;8314360;28;20159;-64
2021/03/24 11:07:49;;;;;;;16.25;9.18;;;15.50;95.90;;;;;;8316201;28;20056;-65
2021/03/24 11:11:49;;;;;;;11.77;7.50;;;19.30;72.90;;;;;;8333732;28;21642;-65
2021/03/24 11:15:52;;;;;;;12.60;8.75;;;19.20;63.90;;;;;;8332494;28;20025;-64
2021/03/24 11:20:05;;;;;;;13.60;8.20;;;18.90;60.60;;;;;;8332068;28;20083;-64
2021/03/24 11:24:41;;;;;;;12.57;8.20;;;21.00;54.70;;;;;;8328396;28;20108;-65
2021/03/24 11:28:46;;;;;;;11.32;8.40;;;23.00;49.50;;;;;;8286965;28;20025;-65
2021/03/24 11:32:49;;;;;;;10.45;7.10;;;23.60;46.30;;;;;;8329450;28;20029;-65
2021/03/24 11:36:58;;;;;;;12.93;6.97;;;22.30;45.90;;;;;;8324445;28;20029;-64
2021/03/24 11:41:22;;;;;;;10.65;6.82;;;22.20;45.50;;;;;;8329795;28;20043;-66
2021/03/24 11:45:25;;;;;;;8.45;5.15;;;22.90;43.80;;;;;;8317290;28;20357;-65
2021/03/24 11:49:49;;;;;;;10.55;7.40;;;23.60;42.00;;;;;;8325097;28;20025;-66
2021/03/24 11:54:23;;;;;;;10.00;6.35;;;23.80;41.30;;;;;;8325706;28;20079;-66
2021/03/24 11:58:33;;;;;;;11.75;7.05;;;25.40;38.90;;;;;;8328129;28;20490;-66
2021/03/24 12:03:01;;;;;;;13.30;7.28;;;25.90;38.00;;;;;;8324540;28;20033;-65
2021/03/24 12:07:16;;;;;;;10.27;7.53;;;25.70;38.70;;;;;;8326569;28;20033;-65
2021/03/24 12:11:31;;;;;;;9.70;6.53;;;26.60;37.40;;;;;;8304716;28;20030;-63
2021/03/24 12:15:33;;;;;;;11.05;7.20;;;28.80;35.70;;;;;;8310717;28;20025;-63
2021/03/24 12:19:40;;;;;;;11.07;7.30;;;28.40;34.20;;;;;;8327352;28;20037;-64
2021/03/24 12:23:40;;;;;;;12.10;7.32;;;28.90;34.30;;;;;;8324487;28;20026;-64
2021/03/24 12:27:47;;;;;;;8.02;6.50;;;31.50;31.90;;;;;;8317910;28;20481;-66
2021/03/24 12:31:54;;;;;;;9.57;6.55;;;30.90;31.10;;;;;;8326413;28;20013;-64
2021/03/24 12:36:13;;;;;;;11.48;6.32;;;29.60;29.50;;;;;;8307293;28;20467;-63
2021/03/24 12:40:14;;;;;;;9.90;6.18;;;;;;;;;;8324231;28;20709;-65
2021/03/24 12:44:23;;;;;;;8.98;5.95;;;28.80;49.10;;;;;;8324808;28;20029;-65
2021/03/24 12:48:34;;;;;;;8.07;5.80;;;29.20;29.90;;;;;;8324160;28;20100;-64
2021/03/24 12:52:44;;;;;;;9.23;4.95;;;;;;;;;;8318210;28;20440;-67
2021/03/24 12:57:20;;;;;;;6.90;5.72;;;27.30;41.60;;;;;;8305366;28;20507;-65
2021/03/24 13:01:46;;;;;;;7.93;5.43;;;29.30;33.90;;;;;;8222760;28;20036;-65
2021/03/24 13:05:59;;;;;;;7.70;5.13;;;29.70;38.30;;;;;;8355774;28;20479;-63
2021/03/24 13:10:21;;;;;;;7.60;5.38;;;28.60;30.00;;;;;;8336419;28;20869;-64
2021/03/24 13:14:47;;;;;;;9.35;6.63;;;28.80;31.00;;;;;;8322880;28;20029;-63
2021/03/24 13:18:57;;;;;;;9.77;6.18;;;28.00;31.90;;;;;;8333775;28;20029;-63
2021/03/24 13:23:05;;;;;;;9.07;5.53;;;29.40;32.00;;;;;;8307421;28;20083;-62
2021/03/24 13:27:25;;;;;;;7.05;4.60;;;30.80;29.20;;;;;;8321415;28;20381;-63
2021/03/24 13:31:31;;;;;;;;;;;31.60;26.30;;;;;;8327121;28;20123;-64
2021/03/24 13:35:41;;;;;;;6.78;5.20;;;32.30;27.10;;;;;;8326427;28;19913;-63
2021/03/24 13:39:50;;;;;;;5.97;4.80;;;32.90;25.70;;;;;;8327131;28;20017;-63
2021/03/24 13:44:18;;;;;;;6.68;4.88;;;31.80;26.40;;;;;;8325980;28;20048;-63
2021/03/24 13:48:29;;;;;;;6.70;5.00;;;29.30;28.70;;;;;;8326406;28;20029;-63
2021/03/24 13:52:39;;;;;;;7.53;4.88;;;30.20;27.10;;;;;;8326234;28;20021;-63
2021/03/24 13:57:15;;;;;;;9.90;5.47;;;29.80;27.00;;;;;;8313705;28;20487;-63
2021/03/24 14:01:26;;;;;;;8.70;5.40;;;28.60;29.10;;;;;;8311598;28;20467;-65
2021/03/24 14:05:40;;;;;;;6.05;3.88;;;29.90;28.20;;;;;;8325490;28;20104;-63
2021/03/24 14:09:46;;;;;;;6.90;4.75;;;31.50;26.10;;;;;;8294108;28;20022;-64
2021/03/24 14:14:21;;;;;;;8.40;5.85;;;31.60;26.90;;;;;;8321407;28;20038;-63
2021/03/24 14:18:59;;;;;;;9.45;6.00;;;32.00;27.40;;;;;;8307364;28;20538;-64
2021/03/24 14:23:36;;;;;;;8.02;6.35;;;31.30;27.50;;;;;;8316170;28;20435;-65
2021/03/24 14:27:43;;;;;;;8.57;6.15;;;32.80;26.80;;;;;;8327206;28;20025;-65
2021/03/24 14:32:12;;;;;;;7.45;6.47;;;34.10;26.40;;;;;;8325866;28;20028;-66
2021/03/24 14:36:34;;;;;;;10.27;5.60;;;33.70;25.90;;;;;;8321209;28;20120;-65
2021/03/24 14:40:42;;;;;;;6.22;4.95;;;32.80;25.40;;;;;;8319221;28;20029;-66
2021/03/24 14:45:25;;;;;;;6.80;4.93;;;32.70;24.90;;;;;;8328095;28;20022;-65
2021/03/24 14:49:45;;;;;;;6.80;4.70;;;32.20;25.20;;;;;;8327006;28;20026;-65
2021/03/24 14:53:46;;;;;;;5.47;4.15;;;31.80;25.20;;;;;;8304008;28;20025;-65
2021/03/24 14:57:47;;;;;;;6.18;3.83;;;32.10;23.80;;;;;;8312279;28;20562;-65
2021/03/24 15:01:49;;;;;;;7.63;4.22;;;30.20;24.90;;;;;;8328438;28;20037;-65
2021/03/24 15:05:54;;;;;;;5.78;3.97;;;29.70;26.40;;;;;;8329627;28;20028;-64
2021/03/24 15:10:28;;;;;;;5.57;3.90;;;29.50;26.20;;;;;;8326127;28;20076;-66
2021/03/24 15:14:51;;;;;;;6.07;3.72;;;29.40;26.10;;;;;;8325374;28;20021;-66
2021/03/24 15:18:51;;;;;;;6.78;4.15;;;30.80;25.20;;;;;;8324769;28;20018;-65
2021/03/24 15:23:10;;;;;;;6.20;3.80;;;31.40;24.90;;;;;;8329787;28;20037;-65
2021/03/24 15:27:22;;;;;;;7.82;4.35;;;28.60;26.60;;;;;;8328407;28;20395;-65
2021/03/24 15:31:41;;;;;;;6.00;4.28;;;27.80;26.60;;;;;;8310004;28;20039;-65
2021/03/24 15:36:01;;;;;;;7.80;3.83;;;27.30;27.60;;;;;;8319489;28;20029;-65
2021/03/24 15:40:17;;;;;;;6.93;4.50;;;27.90;27.10;;;;;;8318359;28;20029;-64
2021/03/24 15:44:23;;;;;;;5.38;3.90;;;26.80;28.00;;;;;;8330978;28;20116;-66
2021/03/24 15:48:32;;;;;;;3.90;2.90;;;25.80;28.20;;;;;;8330066;28;20471;-66
2021/03/24 15:52:33;;;;;;;4.95;3.90;;;25.80;27.80;;;;;;8328942;28;20029;-65
2021/03/24 15:56:48;;;;;;;6.30;3.60;;;24.60;29.50;;;;;;8329062;28;20021;-66
2021/03/24 16:01:07;;;;;;;6.15;3.42;;;24.00;29.60;;;;;;8326917;28;20120;-65
2021/03/24 16:05:16;;;;;;;6.13;3.33;;;24.10;30.00;;;;;;8324385;28;20693;-65
2021/03/24 16:09:26;;;;;;;4.50;2.92;;;24.20;30.00;;;;;;8332155;28;20021;-65
2021/03/24 16:13:35;;;;;;;5.68;3.50;;;24.90;28.90;;;;;;8329362;28;20384;-65
2021/03/24 16:17:42;;;;;;;5.38;2.60;;;26.40;28.00;;;;;;8331210;28;20030;-67
2021/03/24 16:21:55;;;;;;;3.42;2.72;;;26.40;26.00;;;;;;8315504;28;20388;-66
2021/03/24 16:26:07;;;;;;;3.58;2.55;;;26.70;26.50;;;;;;8322774;28;20026;-65
2021/03/24 16:30:28;;;;;;;4.28;2.78;;;26.70;25.10;;;;;;8325865;28;20496;-66
2021/03/24 16:35:07;;;;;;;5.35;3.05;;;26.80;26.40;;;;;;8315125;28;20033;-66
2021/03/24 16:39:22;;;;;;;3.83;2.83;;;26.60;27.80;;;;;;8323680;28;20037;-66
2021/03/24 16:43:44;;;;;;;5.00;3.20;;;27.10;27.10;;;;;;8325635;28;20032;-66
2021/03/24 16:48:06;;;;;;;5.82;3.92;;;26.70;27.30;;;;;;8323646;28;20112;-65
2021/03/24 16:52:25;;;;;;;5.25;3.78;;;25.90;28.60;;;;;;8319406;28;20104;-67
2021/03/24 16:56:52;;;;;;;5.45;4.00;;;25.40;29.00;;;;;;8317827;28;20041;-67
2021/03/24 17:01:06;;;;;;;8.85;4.80;;;23.40;32.70;;;;;;8302460;28;20091;-65
2021/03/24 17:05:42;;;;;;;13.63;4.63;;;21.00;38.40;;;;;;8321156;28;20041;-66
2021/03/24 17:10:00;;;;;;;6.30;4.35;;;18.70;45.20;;;;;;8305947;28;20116;-66
2021/03/24 17:14:10;;;;;;;6.50;4.20;;;17.10;46.70;;;;;;8314965;28;20029;-66
2021/03/24 17:18:29;;;;;;;6.63;4.22;;;16.00;50.80;;;;;;8326346;28;20048;-66
2021/03/24 17:22:32;;;;;;;9.40;4.60;;;15.10;52.50;;;;;;8306250;28;20074;-65
2021/03/24 17:26:36;;;;;;;7.60;4.63;;;14.30;55.00;;;;;;8300313;28;20407;-65
2021/03/24 17:30:37;;;;;;;9.25;4.32;;;14.00;57.00;;;;;;8320496;28;20025;-65
2021/03/24 17:34:43;;;;;;;8.68;4.38;;;13.50;59.10;;;;;;8305622;28;20033;-65
2021/03/24 17:38:43;;;;;;;5.28;3.85;;;12.60;60.90;;;;;;8304740;28;20643;-65
2021/03/24 17:42:47;;;;;;;9.13;3.50;;;11.80;64.70;;;;;;8304692;28;20032;-64
2021/03/24 17:46:52;;;;;;;7.05;3.10;;;11.20;66.80;;;;;;8304562;28;20061;-65
2021/03/24 17:51:38;;;;;;;4.88;3.03;;;10.90;69.40;;;;;;8304597;28;20037;-66
2021/03/24 17:55:51;;;;;;;5.18;3.33;;;10.60;72.90;;;;;;8299161;28;20046;-66
2021/03/24 18:00:22;;;;;;;9.35;3.35;;;10.30;76.50;;;;;;8310388;28;20028;-66
2021/03/24 18:04:38;;;;;;;10.65;4.65;;;10.00;77.50;;;;;;8314892;28;20811;-65
2021/03/24 18:08:42;;;;;;;45.80;29.58;;;9.90;82.90;;;;;;8294502;28;20041;-65
2021/03/24 18:12:46;;;;;;;161.95;145.52;;;9.70;84.90;;;;;;8305980;28;20083;-65
2021/03/24 18:17:13;;;;;;;20.13;9.13;;;9.60;85.10;;;;;;8289056;28;20091;-65
2021/03/24 18:21:18;;;;;;;12.27;7.38;;;9.30;87.00;;;;;;8287859;28;20025;-65
2021/03/24 18:25:32;;;;;;;15.70;7.72;;;9.40;89.00;;;;;;8305103;28;20021;-65
2021/03/24 18:29:33;;;;;;;14.50;6.97;;;9.20;90.20;;;;;;8301275;28;20018;-66
2021/03/24 18:33:48;;;;;;;11.50;5.28;;;8.90;91.90;;;;;;8311416;28;20033;-66
2021/03/24 18:37:56;;;;;;;10.45;4.80;;;8.40;95.30;;;;;;8313269;28;20568;-65
2021/03/24 18:42:01;;;;;;;10.23;6.63;;;8.10;99.40;;;;;;8314904;28;20026;-65
2021/03/24 18:46:07;;;;;;;18.95;8.60;;;7.90;99.90;;;;;;8314476;28;20621;-65
2021/03/24 18:50:29;;;;;;;11.15;7.40;;;7.70;99.90;;;;;;8312184;28;20033;-65
2021/03/24 18:54:41;;;;;;;14.18;7.70;;;7.60;99.90;;;;;;8287781;28;20053;-65
2021/03/24 18:58:45;;;;;;;16.05;8.07;;;7.60;99.90;;;;;;8312759;28;20025;-65
2021/03/24 19:02:46;;;;;;;16.33;9.18;;;7.70;99.90;;;;;;8310580;28;20037;-65
2021/03/24 19:06:50;;;;;;;18.13;9.55;;;7.60;99.90;;;;;;8313242;28;20108;-64
2021/03/24 19:10:56;;;;;;;19.02;9.32;;;7.40;99.90;;;;;;8320935;28;20488;-65
2021/03/24 19:15:02;;;;;;;16.95;9.18;;;7.00;99.90;;;;;;8306645;28;20426;-65
2021/03/24 19:19:03;;;;;;;16.42;9.05;;;6.80;99.90;;;;;;8301175;28;20018;-64
2021/03/24 19:23:06;;;;;;;20.85;10.32;;;6.60;99.90;;;;;;8285724;28;20531;-65
2021/03/24 19:27:20;;;;;;;24.88;9.63;;;6.60;99.90;;;;;;8325750;28;20064;-64
2021/03/24 19:31:21;;;;;;;14.98;8.80;;;6.70;99.90;;;;;;8313853;28;20063;-65
2021/03/24 19:35:52;;;;;;;23.88;9.90;;;6.30;99.90;;;;;;8297351;28;20021;-65
2021/03/24 19:40:32;;;;;;;17.42;9.07;;;6.20;99.90;;;;;;8330293;28;20052;-64
2021/03/24 19:44:36;;;;;;;20.52;8.35;;;5.90;99.90;;;;;;8226569;28;20801;-65
2021/03/24 19:48:37;;;;;;;19.88;8.68;;;5.80;99.90;;;;;;8321250;28;20316;-65
2021/03/24 19:52:37;;;;;;;18.48;9.88;;;5.60;99.90;;;;;;8304726;28;20059;-66
2021/03/24 19:57:06;;;;;;;19.17;11.00;;;5.50;99.90;;;;;;8327568;28;20427;-65
2021/03/24 20:01:16;;;;;;;25.58;12.43;;;5.50;99.90;;;;;;8320965;28;20060;-66
2021/03/24 20:05:24;;;;;;;25.92;12.43;;;5.50;99.90;;;;;;8305871;28;20025;-66
2021/03/24 20:09:39;;;;;;;17.70;11.38;;;5.40;99.90;;;;;;8294266;28;20053;-66
2021/03/24 20:13:48;;;;;;;26.33;12.80;;;5.30;99.90;;;;;;8291424;28;20025;-66
2021/03/24 20:17:51;;;;;;;16.23;10.20;;;5.30;99.90;;;;;;8306656;28;20041;-66
2021/03/24 20:21:53;;;;;;;17.05;9.65;;;5.10;99.90;;;;;;8302297;28;20030;-66
2021/03/24 20:25:54;;;;;;;20.25;10.65;;;5.00;99.90;;;;;;8288595;28;20033;-65
2021/03/24 20:29:55;;;;;;;19.75;11.25;;;5.00;99.90;;;;;;8308948;28;20152;-66
2021/03/24 20:34:14;;;;;;;26.13;13.27;;;4.80;99.90;;;;;;8298884;28;20136;-66
2021/03/24 20:38:18;;;;;;;23.75;12.25;;;4.70;99.90;;;;;;8302446;28;20033;-66
2021/03/24 20:42:35;;;;;;;21.85;11.75;;;4.60;99.90;;;;;;8279277;28;20025;-66
2021/03/24 20:46:36;;;;;;;22.85;12.13;;;4.40;99.90;;;;;;8286031;28;20029;-66
2021/03/24 20:50:40;;;;;;;23.30;12.55;;;4.30;99.90;;;;;;8303436;28;20037;-67
2021/03/24 20:54:41;;;;;;;694.85;627.88;;;4.30;99.90;;;;;;8306186;28;20042;-66
2021/03/24 20:58:42;;;;;;;18.13;10.35;;;4.20;99.90;;;;;;8316154;28;20120;-66
2021/03/24 21:02:42;;;;;;;673.63;610.90;;;4.00;99.90;;;;;;8325217;28;20040;-66
2021/03/24 21:06:44;;;;;;;21.80;11.27;;;4.00;99.90;;;;;;8323099;28;20105;-66
2021/03/24 21:10:45;;;;;;;15.60;9.80;;;3.90;99.90;;;;;;8323305;28;20033;-66
2021/03/24 21:14:46;;;;;;;14.18;8.32;;;3.70;99.90;;;;;;8323000;28;20025;-66
2021/03/24 21:18:49;;;;;;;12.82;7.90;;;3.60;99.90;;;;;;8324430;28;20084;-66
2021/03/24 21:22:50;;;;;;;17.45;7.78;;;3.50;99.90;;;;;;8325539;28;20017;-66
2021/03/24 21:26:51;;;;;;;15.55;7.85;;;3.40;99.90;;;;;;8320107;28;20040;-66
2021/03/24 21:30:52;;;;;;;13.43;8.00;;;3.40;99.90;;;;;;8321358;28;20112;-66
2021/03/24 21:34:53;;;;;;;17.48;8.23;;;3.40;99.90;;;;;;8320641;28;20116;-66
2021/03/24 21:38:54;;;;;;;14.75;8.05;;;3.40;99.90;;;;;;8322846;28;20033;-66
2021/03/24 21:42:55;;;;;;;15.48;8.20;;;3.30;99.90;;;;;;8323098;28;20053;-66